National Oceanic and Atmospheric Ad Ministration (NOAA) METAR sites at Arizona area airports, and Alamosa, Colorado.

They usually update between ten till and the top of the hour, Glendale doesn't at night.  So they should update here at beginning of each hour.  METAR is an international standard Aviation Routine Weather Report code.  The reports are primarily collected by equipment such as Automated Surface Observing Systems (ASOS).  In the code the time is given in ZULU or UTC, wind in Knots, and temperatures in centigrade.

Weather Display Generates this local one from my data:

METAR FAQ


Phoenix Sky Harbor International Airport (KPHX) NOAA metar
Phoenix Sky Harbor International Airport (KPHX) NOAA metar
Sky Harbor Weather Conditions: clear

Forecast from Metar
KPHX 260851Z 10003KT 10SM CLR 10/M04 A3015 RMK AO2 SLP203 T01001039 56003


Phoenix, Phoenix Sky Harbor International Airport, AZ, United States (KPHX) 33-26-03N 112-03-04W 336M
Nov 26, 2022 - 03:51 AM EST / 2022.11.26 0851 UTC
Wind: from the E (100 degrees) at 3 MPH (3 KT):0
Visibility: 10 mile(s):0
Sky conditions: clear
Temperature: 50.0 F (10.0 C)
Dew Point: 25.0 F (-3.9 C)
Relative Humidity: 37%
Pressure (altimeter): 30.15 in. Hg (1020 hPa)
Pressure tendency: 0.01 inches (0.3 hPa) lower than three hours ago
ob: KPHX 260851Z 10003KT 10SM CLR 10/M04 A3015 RMK AO2 SLP203 T01001039 56003
cycle: 9
clear




KDVT 260753Z AUTO 00000KT 10SM CLR 07/M06 A3017 RMK AO2 SLP209 T00671056


PHOENIX-DEER VALLEY MUN, AZ, United States (KDVT) 33-41N 112-04W 443M
Nov 26, 2022 - 02:53 AM EST / 2022.11.26 0753 UTC
Wind: Calm:0
Visibility: 10 mile(s):0
Sky conditions: clear
Temperature: 44.1 F (6.7 C)
Dew Point: 21.9 F (-5.6 C)
Relative Humidity: 41%
Pressure (altimeter): 30.17 in. Hg (1021 hPa)
ob: KDVT 260753Z AUTO 00000KT 10SM CLR 07/M06 A3017 RMK AO2 SLP209 T00671056
cycle: 8
Phoenix-Deer Valley Municipal Airport (KDVT) NOAA




KGEU 260250Z 22006KT 10SM SKC 15/M06 A3015 RMK LAST 


Glendale, Glendale Municipal Airport, AZ, United States (KGEU) 33-31-38N 112-17-43W
Nov 25, 2022 - 09:50 PM EST / 2022.11.26 0250 UTC
Wind: from the SW (220 degrees) at 7 MPH (6 KT):0
Visibility: 10 mile(s):0
Sky conditions: clear
Temperature: 59 F (15 C)
Dew Point: 21 F (-6 C)
Relative Humidity: 22%
Pressure (altimeter): 30.15 in. Hg (1020 hPa)
ob: KGEU 260250Z 22006KT 10SM SKC 15/M06 A3015 RMK LAST 
cycle: 3
Glendale Municipal Airport (KGEU) NOAA




KSDL 260753Z AUTO 00000KT 10SM CLR 09/M04 A3018 RMK AO2 SLP208 T00941039


SCOTTSDALE AIRPORT, AZ, United States (KSDL) 33-37N 111-55W 447M
Nov 26, 2022 - 02:53 AM EST / 2022.11.26 0753 UTC
Wind: Calm:0
Visibility: 10 mile(s):0
Sky conditions: clear
Temperature: 48.9 F (9.4 C)
Dew Point: 25.0 F (-3.9 C)
Relative Humidity: 38%
Pressure (altimeter): 30.18 in. Hg (1022 hPa)
ob: KSDL 260753Z AUTO 00000KT 10SM CLR 09/M04 A3018 RMK AO2 SLP208 T00941039
cycle: 8
Scottsdale, AZ Airport (KSDL) NOAA




KFFZ 260754Z 02003KT 10SM CLR 09/M03 A3017 RMK AO2 SLP203 T00891033


Mesa / Falcon Field, AZ, United States (KFFZ) 33-28N 111-44W
Nov 26, 2022 - 02:54 AM EST / 2022.11.26 0754 UTC
Wind: from the NNE (020 degrees) at 3 MPH (3 KT):0
Visibility: 10 mile(s):0
Sky conditions: clear
Temperature: 48.0 F (8.9 C)
Dew Point: 26.1 F (-3.3 C)
Relative Humidity: 42%
Pressure (altimeter): 30.17 in. Hg (1021 hPa)
ob: KFFZ 260754Z 02003KT 10SM CLR 09/M03 A3017 RMK AO2 SLP203 T00891033
cycle: 8
Mesa / Falcon Field (KFFZ) NOAA




KGYR 260347Z 25006KT 10SM SKC 13/M05 A3017 RMK LAST 


Goodyear Municipal, AZ, United States (KGYR) 33-25N 112-23W
Nov 25, 2022 - 10:47 PM EST / 2022.11.26 0347 UTC
Wind: from the WSW (250 degrees) at 7 MPH (6 KT):0
Visibility: 10 mile(s):0
Sky conditions: clear
Temperature: 55 F (13 C)
Dew Point: 23 F (-5 C)
Relative Humidity: 28%
Pressure (altimeter): 30.17 in. Hg (1021 hPa)
ob: KGYR 260347Z 25006KT 10SM SKC 13/M05 A3017 RMK LAST 
cycle: 4
Goodyear Municipal (KGYR) NOAA




KCHD 260347Z 18004KT 10SM CLR 12/M04 A3018 RMK LAST 


Chandler, Chandler Municipal Airport, AZ, United States (KCHD) 33-16-09N 111-48-40W
Nov 25, 2022 - 10:47 PM EST / 2022.11.26 0347 UTC
Wind: from the S (180 degrees) at 5 MPH (4 KT):0
Visibility: 10 mile(s):0
Sky conditions: clear
Temperature: 53 F (12 C)
Dew Point: 24 F (-4 C)
Relative Humidity: 32%
Pressure (altimeter): 30.18 in. Hg (1022 hPa)
ob: KCHD 260347Z 18004KT 10SM CLR 12/M04 A3018 RMK LAST 
cycle: 4
Chandler, Chandler Municipal Airport (KCHD) NOAA




KIWA 260735Z AUTO 11008KT 10SM CLR 06/M07 A3019 RMK AO2 T00641066


Mesa, Williams Gateway Airport, AZ, United States (KIWA) 33-19N 111-39W
Nov 26, 2022 - 02:35 AM EST / 2022.11.26 0735 UTC
Wind: from the ESE (110 degrees) at 9 MPH (8 KT):0
Visibility: 10 mile(s):0
Sky conditions: clear
Temperature: 43.5 F (6.4 C)
Dew Point: 20.1 F (-6.6 C)
Relative Humidity: 38%
Pressure (altimeter): 30.19 in. Hg (1022 hPa)
ob: KIWA 260735Z AUTO 11008KT 10SM CLR 06/M07 A3019 RMK AO2 T00641066
cycle: 7
Mesa, Williams Gateway Airport, AZ (KIWA) NOAA




KLUF 260755Z AUTO 00000KT 10SM CLR 09/M05 A3015 RMK AO2 SLP208 T00851054 


Luke Air Force Base / Phoenix, AZ, United States (KLUF) 33-32N 112-23W 332M
Nov 26, 2022 - 02:55 AM EST / 2022.11.26 0755 UTC
Wind: Calm:0
Visibility: 10 mile(s):0
Sky conditions: clear
Temperature: 47.3 F (8.5 C)
Dew Point: 22.3 F (-5.4 C)
Relative Humidity: 36%
Pressure (altimeter): 30.15 in. Hg (1020 hPa)
ob: KLUF 260755Z AUTO 00000KT 10SM CLR 09/M05 A3015 RMK AO2 SLP208 T00851054 
cycle: 8
Luke Air Force Base, AZ (KLUF)




KDMA 260855Z AUTO 10005KT 10SM CLR 04/M07 A3018 RMK AO2 SLP206 T00401066 58006 


Davis-Monthan Air Force Base, AZ, United States (KDMA) 32-10N 110-53W
Nov 26, 2022 - 03:55 AM EST / 2022.11.26 0855 UTC
Wind: from the E (100 degrees) at 6 MPH (5 KT):0
Visibility: 10 mile(s):0
Sky conditions: clear
Temperature: 39.2 F (4.0 C)
Dew Point: 20.1 F (-6.6 C)
Relative Humidity: 45%
Pressure (altimeter): 30.18 in. Hg (1022 hPa)
Pressure tendency: 0.02 inches (0.6 hPa) lower than three hours ago
ob: KDMA 260855Z AUTO 10005KT 10SM CLR 04/M07 A3018 RMK AO2 SLP206 T00401066 58006 
cycle: 9
 Davis-Monthan Air Force Base, AZ, (KDMA)  NOAA




KFLG 260757Z AUTO 00000KT 10SM CLR M07/M13 A3025 RMK AO2 SLP230 T10721128


FLAGSTAFF PULLIAM AIRPORT, AZ, United States (KFLG) 35-08N 111-40W 2134M
Nov 26, 2022 - 02:57 AM EST / 2022.11.26 0757 UTC
Wind: Calm:0
Visibility: 10 mile(s):0
Sky conditions: clear
Temperature: 19.0 F (-7.2 C)
Dew Point: 9.0 F (-12.8 C)
Relative Humidity: 64%
Pressure (altimeter): 30.25 in. Hg (1024 hPa)
ob: KFLG 260757Z AUTO 00000KT 10SM CLR M07/M13 A3025 RMK AO2 SLP230 T10721128
cycle: 8
Flagstaff, AZ Pulliam Airport (KFLG) NOAA




KALS 260852Z AUTO 18004KT 10SM CLR M14/M16 A3013 RMK AO2 SLP222 T11391161 56018


SAN LUIS VALLEY REGIONAL, CO, United States (KALS) 37-26N 105-52W 2299M Nov 26, 2022 - 03:52 AM EST / 2022.11.26 0852 UTC Wind: from the S (180 degrees) at 5 MPH (4 KT):0 Visibility: 10 mile(s):0 Sky conditions: clear Temperature: 7.0 F (-13.9 C) Windchill: -2 F (-19 C):1 Dew Point: 3.0 F (-16.1 C) Relative Humidity: 83% Pressure (altimeter): 30.13 in. Hg (1020 hPa) Pressure tendency: 0.05 inches (1.8 hPa) lower than three hours ago ob: KALS 260852Z AUTO 18004KT 10SM CLR M14/M16 A3013 RMK AO2 SLP222 T11391161 56018 cycle: 9 Alamosa, Colorado, San Luis Valley Regional (KALS) NOAA








<-- end Container -->


<-- Begin Footer -->